sensor_id;sensor_type;location;lat;lon;timestamp;P1;durP1;ratioP1;P2;durP2;ratioP2
52940;SDS011;62001;53.366;6.636;2023-06-14T00:01:45;5.90;;;2.38;;
52940;SDS011;62001;53.366;6.636;2023-06-14T00:04:12;5.28;;;2.08;;
52940;SDS011;62001;53.366;6.636;2023-06-14T00:06:41;3.25;;;1.70;;
52940;SDS011;62001;53.366;6.636;2023-06-14T00:09:10;6.65;;;2.00;;
52940;SDS011;62001;53.366;6.636;2023-06-14T00:11:42;4.45;;;2.10;;
52940;SDS011;62001;53.366;6.636;2023-06-14T00:14:08;4.63;;;1.90;;
52940;SDS011;62001;53.366;6.636;2023-06-14T00:16:35;3.45;;;1.85;;
52940;SDS011;62001;53.366;6.636;2023-06-14T00:19:02;5.13;;;1.85;;
52940;SDS011;62001;53.366;6.636;2023-06-14T00:21:29;4.90;;;1.65;;
52940;SDS011;62001;53.366;6.636;2023-06-14T00:23:58;3.78;;;2.10;;
52940;SDS011;62001;53.366;6.636;2023-06-14T00:26:24;6.88;;;1.95;;
52940;SDS011;62001;53.366;6.636;2023-06-14T00:28:51;4.70;;;1.60;;
52940;SDS011;62001;53.366;6.636;2023-06-14T00:31:17;5.78;;;2.10;;
52940;SDS011;62001;53.366;6.636;2023-06-14T00:33:43;6.13;;;1.80;;
52940;SDS011;62001;53.366;6.636;2023-06-14T00:36:10;3.35;;;1.75;;
52940;SDS011;62001;53.366;6.636;2023-06-14T00:38:36;3.25;;;1.70;;
52940;SDS011;62001;53.366;6.636;2023-06-14T00:41:01;7.57;;;2.03;;
52940;SDS011;62001;53.366;6.636;2023-06-14T00:43:28;3.30;;;1.63;;
52940;SDS011;62001;53.366;6.636;2023-06-14T00:45:54;4.13;;;1.88;;
52940;SDS011;62001;53.366;6.636;2023-06-14T00:48:20;4.25;;;1.80;;
52940;SDS011;62001;53.366;6.636;2023-06-14T00:50:46;6.20;;;2.17;;
52940;SDS011;62001;53.366;6.636;2023-06-14T00:53:14;4.88;;;1.88;;
52940;SDS011;62001;53.366;6.636;2023-06-14T00:55:42;7.38;;;2.17;;
52940;SDS011;62001;53.366;6.636;2023-06-14T00:58:08;5.03;;;2.10;;
52940;SDS011;62001;53.366;6.636;2023-06-14T01:00:35;3.60;;;1.90;;
52940;SDS011;62001;53.366;6.636;2023-06-14T01:03:01;5.22;;;1.83;;
52940;SDS011;62001;53.366;6.636;2023-06-14T01:05:28;4.85;;;1.95;;
52940;SDS011;62001;53.366;6.636;2023-06-14T01:08:41;3.83;;;1.60;;
52940;SDS011;62001;53.366;6.636;2023-06-14T01:10:56;3.90;;;2.17;;
52940;SDS011;62001;53.366;6.636;2023-06-14T01:13:27;6.45;;;2.17;;
52940;SDS011;62001;53.366;6.636;2023-06-14T01:15:58;5.13;;;1.92;;
52940;SDS011;62001;53.366;6.636;2023-06-14T01:18:25;5.70;;;2.10;;
52940;SDS011;62001;53.366;6.636;2023-06-14T01:20:52;5.55;;;2.03;;
52940;SDS011;62001;53.366;6.636;2023-06-14T01:23:20;3.70;;;1.95;;
52940;SDS011;62001;53.366;6.636;2023-06-14T01:25:48;5.03;;;2.00;;
52940;SDS011;62001;53.366;6.636;2023-06-14T01:28:18;2.15;;;1.58;;
52940;SDS011;62001;53.366;6.636;2023-06-14T01:30:46;3.88;;;2.03;;
52940;SDS011;62001;53.366;6.636;2023-06-14T01:33:18;5.40;;;2.20;;
52940;SDS011;62001;53.366;6.636;2023-06-14T01:35:47;5.82;;;2.15;;
52940;SDS011;62001;53.366;6.636;2023-06-14T01:38:15;3.00;;;2.13;;
52940;SDS011;62001;53.366;6.636;2023-06-14T01:40:44;3.13;;;2.10;;
52940;SDS011;62001;53.366;6.636;2023-06-14T01:43:11;4.75;;;2.05;;
52940;SDS011;62001;53.366;6.636;2023-06-14T01:45:40;4.97;;;2.42;;
52940;SDS011;62001;53.366;6.636;2023-06-14T01:48:07;6.65;;;2.50;;
52940;SDS011;62001;53.366;6.636;2023-06-14T01:50:34;6.10;;;2.20;;
52940;SDS011;62001;53.366;6.636;2023-06-14T01:53:00;3.88;;;2.30;;
52940;SDS011;62001;53.366;6.636;2023-06-14T01:55:26;9.40;;;2.58;;
52940;SDS011;62001;53.366;6.636;2023-06-14T01:57:52;6.15;;;2.17;;
52940;SDS011;62001;53.366;6.636;2023-06-14T02:00:19;4.90;;;2.10;;
52940;SDS011;62001;53.366;6.636;2023-06-14T02:02:46;4.72;;;2.50;;
52940;SDS011;62001;53.366;6.636;2023-06-14T02:05:13;7.95;;;3.00;;
52940;SDS011;62001;53.366;6.636;2023-06-14T02:07:38;8.10;;;2.67;;
52940;SDS011;62001;53.366;6.636;2023-06-14T02:10:04;5.93;;;2.38;;
52940;SDS011;62001;53.366;6.636;2023-06-14T02:12:31;5.22;;;2.60;;
52940;SDS011;62001;53.366;6.636;2023-06-14T02:14:57;7.32;;;2.53;;
52940;SDS011;62001;53.366;6.636;2023-06-14T02:17:23;4.75;;;2.70;;
52940;SDS011;62001;53.366;6.636;2023-06-14T02:19:50;5.53;;;2.63;;
52940;SDS011;62001;53.366;6.636;2023-06-14T02:22:16;6.65;;;2.65;;
52940;SDS011;62001;53.366;6.636;2023-06-14T02:24:42;6.75;;;2.38;;
52940;SDS011;62001;53.366;6.636;2023-06-14T02:27:08;7.25;;;2.75;;
52940;SDS011;62001;53.366;6.636;2023-06-14T02:29:35;4.28;;;2.63;;
52940;SDS011;62001;53.366;6.636;2023-06-14T02:32:01;7.28;;;2.97;;
52940;SDS011;62001;53.366;6.636;2023-06-14T02:34:27;5.93;;;2.80;;
52940;SDS011;62001;53.366;6.636;2023-06-14T02:36:53;5.25;;;3.10;;
52940;SDS011;62001;53.366;6.636;2023-06-14T02:39:20;5.82;;;2.80;;
52940;SDS011;62001;53.366;6.636;2023-06-14T02:41:48;5.40;;;2.63;;
52940;SDS011;62001;53.366;6.636;2023-06-14T02:44:17;7.20;;;3.00;;
52940;SDS011;62001;53.366;6.636;2023-06-14T02:46:44;5.40;;;2.53;;
52940;SDS011;62001;53.366;6.636;2023-06-14T02:49:11;6.20;;;3.00;;
52940;SDS011;62001;53.366;6.636;2023-06-14T02:51:36;6.07;;;2.97;;
52940;SDS011;62001;53.366;6.636;2023-06-14T02:54:02;5.20;;;2.92;;
52940;SDS011;62001;53.366;6.636;2023-06-14T02:56:28;7.22;;;2.63;;
52940;SDS011;62001;53.366;6.636;2023-06-14T02:58:55;6.95;;;2.75;;
52940;SDS011;62001;53.366;6.636;2023-06-14T03:01:22;8.60;;;3.17;;
52940;SDS011;62001;53.366;6.636;2023-06-14T03:03:48;6.95;;;3.05;;
52940;SDS011;62001;53.366;6.636;2023-06-14T03:06:14;6.20;;;3.40;;
52940;SDS011;62001;53.366;6.636;2023-06-14T03:08:41;6.65;;;2.78;;
52940;SDS011;62001;53.366;6.636;2023-06-14T03:11:07;3.70;;;2.97;;
52940;SDS011;62001;53.366;6.636;2023-06-14T03:13:37;6.03;;;3.30;;
52940;SDS011;62001;53.366;6.636;2023-06-14T03:16:04;12.32;;;3.15;;
52940;SDS011;62001;53.366;6.636;2023-06-14T03:18:30;7.43;;;3.45;;
52940;SDS011;62001;53.366;6.636;2023-06-14T03:21:03;5.97;;;3.30;;
52940;SDS011;62001;53.366;6.636;2023-06-14T03:23:30;7.95;;;3.10;;
52940;SDS011;62001;53.366;6.636;2023-06-14T03:25:56;7.97;;;3.60;;
52940;SDS011;62001;53.366;6.636;2023-06-14T03:28:22;7.60;;;3.30;;
52940;SDS011;62001;53.366;6.636;2023-06-14T03:30:48;6.22;;;3.30;;
52940;SDS011;62001;53.366;6.636;2023-06-14T03:33:14;7.03;;;3.35;;
52940;SDS011;62001;53.366;6.636;2023-06-14T03:35:40;8.65;;;3.20;;
52940;SDS011;62001;53.366;6.636;2023-06-14T03:38:06;4.78;;;3.47;;
52940;SDS011;62001;53.366;6.636;2023-06-14T03:40:32;5.90;;;3.60;;
52940;SDS011;62001;53.366;6.636;2023-06-14T03:42:58;6.25;;;3.30;;
52940;SDS011;62001;53.366;6.636;2023-06-14T03:45:24;5.95;;;3.38;;
52940;SDS011;62001;53.366;6.636;2023-06-14T03:47:49;8.18;;;3.58;;
52940;SDS011;62001;53.366;6.636;2023-06-14T03:50:16;5.35;;;3.35;;
52940;SDS011;62001;53.366;6.636;2023-06-14T03:52:43;5.22;;;3.20;;
52940;SDS011;62001;53.366;6.636;2023-06-14T03:55:09;6.55;;;3.40;;
52940;SDS011;62001;53.366;6.636;2023-06-14T03:57:38;6.05;;;3.70;;
52940;SDS011;62001;53.366;6.636;2023-06-14T04:00:04;9.32;;;3.63;;
52940;SDS011;62001;53.366;6.636;2023-06-14T04:02:31;5.82;;;4.00;;
52940;SDS011;62001;53.366;6.636;2023-06-14T04:04:57;5.18;;;3.42;;
52940;SDS011;62001;53.366;6.636;2023-06-14T04:07:23;6.50;;;3.90;;
52940;SDS011;62001;53.366;6.636;2023-06-14T04:09:50;6.53;;;3.28;;
52940;SDS011;62001;53.366;6.636;2023-06-14T04:12:15;7.70;;;3.70;;
52940;SDS011;62001;53.366;6.636;2023-06-14T04:14:41;5.95;;;3.40;;
52940;SDS011;62001;53.366;6.636;2023-06-14T04:17:07;7.68;;;3.70;;
52940;SDS011;62001;53.366;6.636;2023-06-14T04:19:33;7.43;;;3.83;;
52940;SDS011;62001;53.366;6.636;2023-06-14T04:21:59;5.90;;;3.25;;
52940;SDS011;62001;53.366;6.636;2023-06-14T04:24:27;8.73;;;4.00;;
52940;SDS011;62001;53.366;6.636;2023-06-14T04:26:58;6.97;;;3.72;;
52940;SDS011;62001;53.366;6.636;2023-06-14T04:29:24;7.03;;;3.55;;
52940;SDS011;62001;53.366;6.636;2023-06-14T04:31:53;7.68;;;3.78;;
52940;SDS011;62001;53.366;6.636;2023-06-14T04:34:19;8.15;;;3.72;;
52940;SDS011;62001;53.366;6.636;2023-06-14T04:36:46;8.40;;;4.07;;
52940;SDS011;62001;53.366;6.636;2023-06-14T04:39:18;6.22;;;3.70;;
52940;SDS011;62001;53.366;6.636;2023-06-14T04:41:46;8.55;;;3.80;;
52940;SDS011;62001;53.366;6.636;2023-06-14T04:44:12;6.38;;;3.40;;
52940;SDS011;62001;53.366;6.636;2023-06-14T04:46:39;9.50;;;3.58;;
52940;SDS011;62001;53.366;6.636;2023-06-14T04:49:16;7.30;;;4.22;;
52940;SDS011;62001;53.366;6.636;2023-06-14T04:51:42;7.05;;;4.03;;
52940;SDS011;62001;53.366;6.636;2023-06-14T04:54:09;8.30;;;4.00;;
52940;SDS011;62001;53.366;6.636;2023-06-14T04:56:42;6.05;;;3.78;;
52940;SDS011;62001;53.366;6.636;2023-06-14T04:59:09;6.20;;;3.60;;
52940;SDS011;62001;53.366;6.636;2023-06-14T05:01:36;6.50;;;3.72;;
52940;SDS011;62001;53.366;6.636;2023-06-14T05:04:02;8.38;;;3.55;;
52940;SDS011;62001;53.366;6.636;2023-06-14T05:06:29;9.30;;;3.83;;
52940;SDS011;62001;53.366;6.636;2023-06-14T05:08:56;6.07;;;3.30;;
52940;SDS011;62001;53.366;6.636;2023-06-14T05:11:22;4.10;;;2.95;;
52940;SDS011;62001;53.366;6.636;2023-06-14T05:13:51;5.00;;;3.28;;
52940;SDS011;62001;53.366;6.636;2023-06-14T05:16:17;8.40;;;2.95;;
52940;SDS011;62001;53.366;6.636;2023-06-14T05:18:44;6.00;;;3.30;;
52940;SDS011;62001;53.366;6.636;2023-06-14T05:21:12;6.07;;;3.35;;
52940;SDS011;62001;53.366;6.636;2023-06-14T05:23:42;7.10;;;3.35;;
52940;SDS011;62001;53.366;6.636;2023-06-14T05:26:09;7.50;;;3.28;;
52940;SDS011;62001;53.366;6.636;2023-06-14T05:28:36;7.10;;;3.08;;
52940;SDS011;62001;53.366;6.636;2023-06-14T05:31:01;7.25;;;3.20;;
52940;SDS011;62001;53.366;6.636;2023-06-14T05:33:28;6.53;;;3.03;;
52940;SDS011;62001;53.366;6.636;2023-06-14T05:35:54;9.63;;;2.97;;
52940;SDS011;62001;53.366;6.636;2023-06-14T05:38:20;6.90;;;3.25;;
52940;SDS011;62001;53.366;6.636;2023-06-14T05:40:46;6.00;;;3.17;;
52940;SDS011;62001;53.366;6.636;2023-06-14T05:43:12;7.50;;;2.95;;
52940;SDS011;62001;53.366;6.636;2023-06-14T05:45:38;8.98;;;3.10;;
52940;SDS011;62001;53.366;6.636;2023-06-14T05:48:04;4.53;;;2.50;;
52940;SDS011;62001;53.366;6.636;2023-06-14T05:50:30;7.20;;;2.90;;
52940;SDS011;62001;53.366;6.636;2023-06-14T05:52:56;5.85;;;3.00;;
52940;SDS011;62001;53.366;6.636;2023-06-14T05:55:21;3.35;;;2.97;;
52940;SDS011;62001;53.366;6.636;2023-06-14T05:57:47;6.05;;;3.13;;
52940;SDS011;62001;53.366;6.636;2023-06-14T06:00:13;7.05;;;3.10;;
52940;SDS011;62001;53.366;6.636;2023-06-14T06:02:43;5.13;;;2.90;;
52940;SDS011;62001;53.366;6.636;2023-06-14T06:07:36;8.32;;;3.20;;
52940;SDS011;62001;53.366;6.636;2023-06-14T06:10:03;5.50;;;2.78;;
52940;SDS011;62001;53.366;6.636;2023-06-14T06:12:30;5.18;;;3.00;;
52940;SDS011;62001;53.366;6.636;2023-06-14T06:14:56;5.13;;;2.60;;
52940;SDS011;62001;53.366;6.636;2023-06-14T06:17:22;5.00;;;2.78;;
52940;SDS011;62001;53.366;6.636;2023-06-14T06:19:48;4.85;;;2.60;;
52940;SDS011;62001;53.366;6.636;2023-06-14T06:22:13;6.60;;;2.85;;
52940;SDS011;62001;53.366;6.636;2023-06-14T06:24:39;6.60;;;3.25;;
52940;SDS011;62001;53.366;6.636;2023-06-14T06:27:05;8.60;;;2.97;;
52940;SDS011;62001;53.366;6.636;2023-06-14T06:29:33;5.65;;;2.70;;
52940;SDS011;62001;53.366;6.636;2023-06-14T06:32:00;7.25;;;2.90;;
52940;SDS011;62001;53.366;6.636;2023-06-14T06:34:26;5.22;;;2.80;;
52940;SDS011;62001;53.366;6.636;2023-06-14T06:36:52;6.43;;;3.03;;
52940;SDS011;62001;53.366;6.636;2023-06-14T06:39:18;6.80;;;2.90;;
52940;SDS011;62001;53.366;6.636;2023-06-14T06:41:44;8.80;;;3.17;;
52940;SDS011;62001;53.366;6.636;2023-06-14T06:44:10;5.65;;;2.78;;
52940;SDS011;62001;53.366;6.636;2023-06-14T06:46:36;8.65;;;2.70;;
52940;SDS011;62001;53.366;6.636;2023-06-14T06:49:09;6.60;;;2.63;;
52940;SDS011;62001;53.366;6.636;2023-06-14T06:51:37;5.57;;;2.83;;
52940;SDS011;62001;53.366;6.636;2023-06-14T06:54:07;5.78;;;2.90;;
52940;SDS011;62001;53.366;6.636;2023-06-14T06:56:33;10.80;;;3.60;;
52940;SDS011;62001;53.366;6.636;2023-06-14T06:59:00;5.88;;;3.10;;
52940;SDS011;62001;53.366;6.636;2023-06-14T07:01:25;6.40;;;2.75;;
52940;SDS011;62001;53.366;6.636;2023-06-14T07:03:54;6.43;;;2.60;;
52940;SDS011;62001;53.366;6.636;2023-06-14T07:06:20;5.13;;;2.80;;
52940;SDS011;62001;53.366;6.636;2023-06-14T07:08:46;4.10;;;2.45;;
52940;SDS011;62001;53.366;6.636;2023-06-14T07:11:13;6.85;;;2.33;;
52940;SDS011;62001;53.366;6.636;2023-06-14T07:13:39;8.90;;;2.88;;
52940;SDS011;62001;53.366;6.636;2023-06-14T07:16:05;9.07;;;2.83;;
52940;SDS011;62001;53.366;6.636;2023-06-14T07:18:31;4.10;;;2.33;;
52940;SDS011;62001;53.366;6.636;2023-06-14T07:20:57;9.13;;;2.38;;
52940;SDS011;62001;53.366;6.636;2023-06-14T07:23:23;4.28;;;2.25;;
52940;SDS011;62001;53.366;6.636;2023-06-14T07:25:50;8.23;;;2.75;;
52940;SDS011;62001;53.366;6.636;2023-06-14T07:28:18;5.07;;;2.25;;
52940;SDS011;62001;53.366;6.636;2023-06-14T07:30:44;4.40;;;2.33;;
52940;SDS011;62001;53.366;6.636;2023-06-14T07:33:10;4.65;;;2.13;;
52940;SDS011;62001;53.366;6.636;2023-06-14T07:35:37;7.32;;;2.50;;
52940;SDS011;62001;53.366;6.636;2023-06-14T07:38:03;6.63;;;2.70;;
52940;SDS011;62001;53.366;6.636;2023-06-14T07:40:29;4.75;;;2.40;;
52940;SDS011;62001;53.366;6.636;2023-06-14T07:42:54;4.25;;;2.42;;
52940;SDS011;62001;53.366;6.636;2023-06-14T07:45:20;8.48;;;2.83;;
52940;SDS011;62001;53.366;6.636;2023-06-14T07:47:46;4.18;;;2.30;;
52940;SDS011;62001;53.366;6.636;2023-06-14T07:50:12;7.07;;;2.80;;
52940;SDS011;62001;53.366;6.636;2023-06-14T07:52:38;6.22;;;2.40;;
52940;SDS011;62001;53.366;6.636;2023-06-14T07:55:05;5.15;;;3.00;;
52940;SDS011;62001;53.366;6.636;2023-06-14T07:57:31;3.92;;;2.85;;
52940;SDS011;62001;53.366;6.636;2023-06-14T07:59:57;8.15;;;2.63;;
52940;SDS011;62001;53.366;6.636;2023-06-14T08:02:23;5.85;;;2.78;;
52940;SDS011;62001;53.366;6.636;2023-06-14T08:04:48;3.60;;;2.70;;
52940;SDS011;62001;53.366;6.636;2023-06-14T08:07:14;4.60;;;2.72;;
52940;SDS011;62001;53.366;6.636;2023-06-14T08:09:40;11.43;;;2.80;;
52940;SDS011;62001;53.366;6.636;2023-06-14T08:12:06;5.68;;;2.58;;
52940;SDS011;62001;53.366;6.636;2023-06-14T08:14:35;3.72;;;2.35;;
52940;SDS011;62001;53.366;6.636;2023-06-14T08:17:01;5.88;;;2.67;;
52940;SDS011;62001;53.366;6.636;2023-06-14T08:19:27;3.45;;;2.30;;
52940;SDS011;62001;53.366;6.636;2023-06-14T08:21:53;8.48;;;2.40;;
52940;SDS011;62001;53.366;6.636;2023-06-14T08:24:23;5.97;;;2.60;;
52940;SDS011;62001;53.366;6.636;2023-06-14T08:26:49;5.68;;;2.58;;
52940;SDS011;62001;53.366;6.636;2023-06-14T08:29:15;6.75;;;2.78;;
52940;SDS011;62001;53.366;6.636;2023-06-14T08:31:41;5.28;;;2.63;;
52940;SDS011;62001;53.366;6.636;2023-06-14T08:34:07;4.88;;;2.45;;
52940;SDS011;62001;53.366;6.636;2023-06-14T08:36:34;6.38;;;2.45;;
52940;SDS011;62001;53.366;6.636;2023-06-14T08:39:01;2.92;;;2.22;;
52940;SDS011;62001;53.366;6.636;2023-06-14T08:41:27;4.80;;;2.50;;
52940;SDS011;62001;53.366;6.636;2023-06-14T08:43:54;3.28;;;2.05;;
52940;SDS011;62001;53.366;6.636;2023-06-14T08:46:21;4.97;;;2.33;;
52940;SDS011;62001;53.366;6.636;2023-06-14T08:48:50;6.57;;;2.50;;
52940;SDS011;62001;53.366;6.636;2023-06-14T08:51:20;6.70;;;2.60;;
52940;SDS011;62001;53.366;6.636;2023-06-14T08:53:50;6.05;;;2.63;;
52940;SDS011;62001;53.366;6.636;2023-06-14T08:56:23;4.57;;;2.28;;
52940;SDS011;62001;53.366;6.636;2023-06-14T08:58:52;3.50;;;2.53;;
52940;SDS011;62001;53.366;6.636;2023-06-14T09:01:19;5.30;;;3.03;;
52940;SDS011;62001;53.366;6.636;2023-06-14T09:03:47;3.60;;;2.45;;
52940;SDS011;62001;53.366;6.636;2023-06-14T09:06:14;4.10;;;2.78;;
52940;SDS011;62001;53.366;6.636;2023-06-14T09:08:43;9.02;;;3.30;;
52940;SDS011;62001;53.366;6.636;2023-06-14T09:11:18;5.20;;;2.50;;
52940;SDS011;62001;53.366;6.636;2023-06-14T09:13:49;5.75;;;2.80;;
52940;SDS011;62001;53.366;6.636;2023-06-14T09:16:15;5.45;;;2.85;;
52940;SDS011;62001;53.366;6.636;2023-06-14T09:18:42;11.35;;;3.08;;
52940;SDS011;62001;53.366;6.636;2023-06-14T09:21:10;4.63;;;2.55;;
52940;SDS011;62001;53.366;6.636;2023-06-14T09:23:38;4.28;;;2.72;;
52940;SDS011;62001;53.366;6.636;2023-06-14T09:26:08;3.85;;;2.53;;
52940;SDS011;62001;53.366;6.636;2023-06-14T09:28:35;5.25;;;2.90;;
52940;SDS011;62001;53.366;6.636;2023-06-14T09:31:01;4.70;;;2.63;;
52940;SDS011;62001;53.366;6.636;2023-06-14T09:33:27;3.70;;;2.70;;
52940;SDS011;62001;53.366;6.636;2023-06-14T09:35:56;8.50;;;2.70;;
52940;SDS011;62001;53.366;6.636;2023-06-14T09:38:23;7.80;;;2.78;;
52940;SDS011;62001;53.366;6.636;2023-06-14T09:40:50;7.43;;;2.70;;
52940;SDS011;62001;53.366;6.636;2023-06-14T09:43:16;6.88;;;2.90;;
52940;SDS011;62001;53.366;6.636;2023-06-14T09:45:43;5.93;;;2.80;;
52940;SDS011;62001;53.366;6.636;2023-06-14T09:48:11;5.25;;;2.63;;
52940;SDS011;62001;53.366;6.636;2023-06-14T09:50:42;6.78;;;2.70;;
52940;SDS011;62001;53.366;6.636;2023-06-14T09:53:14;3.33;;;2.45;;
52940;SDS011;62001;53.366;6.636;2023-06-14T09:55:41;6.25;;;2.53;;
52940;SDS011;62001;53.366;6.636;2023-06-14T09:58:08;6.15;;;2.50;;
52940;SDS011;62001;53.366;6.636;2023-06-14T10:00:35;5.47;;;2.42;;
52940;SDS011;62001;53.366;6.636;2023-06-14T10:03:06;7.20;;;2.30;;
52940;SDS011;62001;53.366;6.636;2023-06-14T10:05:38;8.15;;;2.47;;
52940;SDS011;62001;53.366;6.636;2023-06-14T10:08:10;5.20;;;2.33;;
52940;SDS011;62001;53.366;6.636;2023-06-14T10:10:43;6.75;;;2.55;;
52940;SDS011;62001;53.366;6.636;2023-06-14T10:13:10;3.40;;;2.50;;
52940;SDS011;62001;53.366;6.636;2023-06-14T10:23:27;5.30;;;2.58;;
52940;SDS011;62001;53.366;6.636;2023-06-14T10:25:56;4.88;;;2.30;;
52940;SDS011;62001;53.366;6.636;2023-06-14T10:28:22;6.75;;;2.55;;
52940;SDS011;62001;53.366;6.636;2023-06-14T10:31:02;4.68;;;2.55;;
52940;SDS011;62001;53.366;6.636;2023-06-14T10:33:29;5.72;;;2.38;;
52940;SDS011;62001;53.366;6.636;2023-06-14T10:38:57;3.45;;;2.28;;
52940;SDS011;62001;53.366;6.636;2023-06-14T10:41:27;6.80;;;2.20;;
52940;SDS011;62001;53.366;6.636;2023-06-14T10:46:38;5.40;;;2.13;;
52940;SDS011;62001;53.366;6.636;2023-06-14T10:49:17;4.65;;;2.20;;
52940;SDS011;62001;53.366;6.636;2023-06-14T10:51:45;2.83;;;2.10;;
52940;SDS011;62001;53.366;6.636;2023-06-14T10:54:15;6.32;;;2.10;;
52940;SDS011;62001;53.366;6.636;2023-06-14T10:56:51;6.25;;;2.65;;
52940;SDS011;62001;53.366;6.636;2023-06-14T10:59:18;3.13;;;1.92;;
52940;SDS011;62001;53.366;6.636;2023-06-14T11:04:49;6.03;;;2.25;;
52940;SDS011;62001;53.366;6.636;2023-06-14T11:12:56;6.95;;;2.25;;
52940;SDS011;62001;53.366;6.636;2023-06-14T11:15:30;7.85;;;2.13;;
52940;SDS011;62001;53.366;6.636;2023-06-14T11:17:57;10.27;;;2.67;;
52940;SDS011;62001;53.366;6.636;2023-06-14T11:20:25;3.72;;;2.90;;
52940;SDS011;62001;53.366;6.636;2023-06-14T11:22:52;7.00;;;2.63;;
52940;SDS011;62001;53.366;6.636;2023-06-14T11:25:19;5.05;;;3.22;;
52940;SDS011;62001;53.366;6.636;2023-06-14T11:27:45;6.18;;;2.85;;
52940;SDS011;62001;53.366;6.636;2023-06-14T11:30:11;9.07;;;2.28;;
52940;SDS011;62001;53.366;6.636;2023-06-14T11:32:38;3.70;;;2.00;;
52940;SDS011;62001;53.366;6.636;2023-06-14T11:35:04;6.07;;;2.30;;
52940;SDS011;62001;53.366;6.636;2023-06-14T11:37:31;7.25;;;2.30;;
52940;SDS011;62001;53.366;6.636;2023-06-14T11:40:00;6.35;;;2.30;;
52940;SDS011;62001;53.366;6.636;2023-06-14T11:42:29;2.85;;;2.05;;
52940;SDS011;62001;53.366;6.636;2023-06-14T11:44:55;6.53;;;2.50;;
52940;SDS011;62001;53.366;6.636;2023-06-14T11:47:21;3.08;;;2.00;;
52940;SDS011;62001;53.366;6.636;2023-06-14T11:49:48;2.78;;;2.30;;
52940;SDS011;62001;53.366;6.636;2023-06-14T11:52:14;6.22;;;2.35;;
52940;SDS011;62001;53.366;6.636;2023-06-14T11:54:40;4.82;;;2.22;;
52940;SDS011;62001;53.366;6.636;2023-06-14T11:57:06;4.45;;;2.40;;
52940;SDS011;62001;53.366;6.636;2023-06-14T11:59:39;5.72;;;2.22;;
52940;SDS011;62001;53.366;6.636;2023-06-14T12:02:06;2.80;;;2.20;;
52940;SDS011;62001;53.366;6.636;2023-06-14T12:04:32;5.50;;;2.03;;
52940;SDS011;62001;53.366;6.636;2023-06-14T12:07:15;3.47;;;2.10;;
52940;SDS011;62001;53.366;6.636;2023-06-14T12:12:23;2.42;;;1.80;;
52940;SDS011;62001;53.366;6.636;2023-06-14T12:14:50;3.53;;;2.00;;
52940;SDS011;62001;53.366;6.636;2023-06-14T12:17:17;2.20;;;1.95;;
52940;SDS011;62001;53.366;6.636;2023-06-14T12:19:44;7.38;;;1.88;;
52940;SDS011;62001;53.366;6.636;2023-06-14T12:22:11;3.72;;;2.05;;
52940;SDS011;62001;53.366;6.636;2023-06-14T12:24:43;4.13;;;2.00;;
52940;SDS011;62001;53.366;6.636;2023-06-14T12:27:10;5.47;;;2.35;;
52940;SDS011;62001;53.366;6.636;2023-06-14T12:29:43;3.72;;;2.17;;
52940;SDS011;62001;53.366;6.636;2023-06-14T12:32:10;6.03;;;2.20;;
52940;SDS011;62001;53.366;6.636;2023-06-14T12:34:36;5.13;;;2.10;;
52940;SDS011;62001;53.366;6.636;2023-06-14T12:37:02;6.35;;;1.92;;
52940;SDS011;62001;53.366;6.636;2023-06-14T12:41:57;2.20;;;1.90;;
52940;SDS011;62001;53.366;6.636;2023-06-14T12:44:24;3.28;;;1.83;;
52940;SDS011;62001;53.366;6.636;2023-06-14T12:46:50;3.15;;;1.95;;
52940;SDS011;62001;53.366;6.636;2023-06-14T12:51:45;6.85;;;2.88;;
52940;SDS011;62001;53.366;6.636;2023-06-14T12:54:11;4.45;;;1.85;;
52940;SDS011;62001;53.366;6.636;2023-06-14T12:56:37;2.88;;;1.88;;
52940;SDS011;62001;53.366;6.636;2023-06-14T12:59:03;23.05;;;4.20;;
52940;SDS011;62001;53.366;6.636;2023-06-14T13:01:29;4.13;;;1.80;;
52940;SDS011;62001;53.366;6.636;2023-06-14T13:03:55;2.13;;;1.70;;
52940;SDS011;62001;53.366;6.636;2023-06-14T13:06:21;8.38;;;2.30;;
52940;SDS011;62001;53.366;6.636;2023-06-14T13:08:50;3.72;;;2.00;;
52940;SDS011;62001;53.366;6.636;2023-06-14T13:11:16;4.30;;;1.95;;
52940;SDS011;62001;53.366;6.636;2023-06-14T13:13:41;4.45;;;2.22;;
52940;SDS011;62001;53.366;6.636;2023-06-14T13:16:07;3.33;;;1.70;;
52940;SDS011;62001;53.366;6.636;2023-06-14T13:18:33;4.18;;;1.92;;
52940;SDS011;62001;53.366;6.636;2023-06-14T13:20:59;3.35;;;1.58;;
52940;SDS011;62001;53.366;6.636;2023-06-14T13:23:26;3.42;;;1.88;;
52940;SDS011;62001;53.366;6.636;2023-06-14T13:25:52;6.85;;;2.97;;
52940;SDS011;62001;53.366;6.636;2023-06-14T13:28:18;7.20;;;2.83;;
52940;SDS011;62001;53.366;6.636;2023-06-14T13:30:44;6.85;;;3.60;;
52940;SDS011;62001;53.366;6.636;2023-06-14T13:33:10;10.32;;;3.45;;
52940;SDS011;62001;53.366;6.636;2023-06-14T13:35:36;5.47;;;1.83;;
52940;SDS011;62001;53.366;6.636;2023-06-14T13:38:02;9.10;;;3.03;;
52940;SDS011;62001;53.366;6.636;2023-06-14T13:40:28;8.80;;;3.10;;
52940;SDS011;62001;53.366;6.636;2023-06-14T13:42:53;8.30;;;2.70;;
52940;SDS011;62001;53.366;6.636;2023-06-14T13:45:19;6.32;;;2.63;;
52940;SDS011;62001;53.366;6.636;2023-06-14T13:47:45;9.68;;;3.00;;
52940;SDS011;62001;53.366;6.636;2023-06-14T13:50:13;5.78;;;2.88;;
52940;SDS011;62001;53.366;6.636;2023-06-14T13:52:39;5.25;;;2.58;;
52940;SDS011;62001;53.366;6.636;2023-06-14T13:55:05;4.93;;;2.90;;
52940;SDS011;62001;53.366;6.636;2023-06-14T13:57:31;9.55;;;2.88;;
52940;SDS011;62001;53.366;6.636;2023-06-14T13:59:57;10.68;;;3.00;;
52940;SDS011;62001;53.366;6.636;2023-06-14T14:02:29;6.20;;;3.08;;
52940;SDS011;62001;53.366;6.636;2023-06-14T14:04:55;7.55;;;2.97;;
52940;SDS011;62001;53.366;6.636;2023-06-14T14:07:22;7.95;;;3.15;;
52940;SDS011;62001;53.366;6.636;2023-06-14T14:09:48;5.97;;;2.60;;
52940;SDS011;62001;53.366;6.636;2023-06-14T14:12:14;5.25;;;2.60;;
52940;SDS011;62001;53.366;6.636;2023-06-14T14:14:41;7.95;;;3.25;;
52940;SDS011;62001;53.366;6.636;2023-06-14T14:17:07;8.00;;;2.80;;
52940;SDS011;62001;53.366;6.636;2023-06-14T14:19:33;7.05;;;3.00;;
52940;SDS011;62001;53.366;6.636;2023-06-14T14:21:59;4.00;;;2.97;;
52940;SDS011;62001;53.366;6.636;2023-06-14T14:24:26;10.40;;;3.65;;
52940;SDS011;62001;53.366;6.636;2023-06-14T14:26:52;8.70;;;2.92;;
52940;SDS011;62001;53.366;6.636;2023-06-14T14:29:19;5.90;;;2.83;;
52940;SDS011;62001;53.366;6.636;2023-06-14T14:31:45;5.57;;;2.60;;
52940;SDS011;62001;53.366;6.636;2023-06-14T14:34:11;10.02;;;2.70;;
52940;SDS011;62001;53.366;6.636;2023-06-14T14:36:37;5.40;;;2.55;;
52940;SDS011;62001;53.366;6.636;2023-06-14T14:39:07;8.85;;;3.10;;
52940;SDS011;62001;53.366;6.636;2023-06-14T14:41:33;6.03;;;2.90;;
52940;SDS011;62001;53.366;6.636;2023-06-14T14:43:59;9.27;;;3.20;;
52940;SDS011;62001;53.366;6.636;2023-06-14T14:46:26;4.25;;;2.83;;
52940;SDS011;62001;53.366;6.636;2023-06-14T14:48:52;8.05;;;3.00;;
52940;SDS011;62001;53.366;6.636;2023-06-14T14:51:18;7.85;;;3.00;;
52940;SDS011;62001;53.366;6.636;2023-06-14T14:53:44;4.55;;;2.85;;
52940;SDS011;62001;53.366;6.636;2023-06-14T14:56:10;7.05;;;2.53;;
52940;SDS011;62001;53.366;6.636;2023-06-14T14:58:37;7.20;;;3.10;;
52940;SDS011;62001;53.366;6.636;2023-06-14T15:01:03;8.57;;;3.10;;
52940;SDS011;62001;53.366;6.636;2023-06-14T15:03:30;7.38;;;2.97;;
52940;SDS011;62001;53.366;6.636;2023-06-14T15:05:56;5.70;;;2.92;;
52940;SDS011;62001;53.366;6.636;2023-06-14T15:08:22;12.40;;;3.17;;
52940;SDS011;62001;53.366;6.636;2023-06-14T15:10:48;9.13;;;3.22;;
52940;SDS011;62001;53.366;6.636;2023-06-14T15:13:14;6.47;;;2.90;;
52940;SDS011;62001;53.366;6.636;2023-06-14T15:15:40;5.18;;;3.15;;
52940;SDS011;62001;53.366;6.636;2023-06-14T15:18:06;7.05;;;3.08;;
52940;SDS011;62001;53.366;6.636;2023-06-14T15:20:32;4.38;;;3.08;;